sensor_id;sensor_type;location;lat;lon;timestamp;temperature;humidity
24146;DHT22;12308;50.948;4.706;2023-03-14T00:01:29;12.50;99.90
24146;DHT22;12308;50.948;4.706;2023-03-14T00:03:55;12.50;99.90
24146;DHT22;12308;50.948;4.706;2023-03-14T00:06:21;12.50;99.90
24146;DHT22;12308;50.948;4.706;2023-03-14T00:08:47;12.60;99.90
24146;DHT22;12308;50.948;4.706;2023-03-14T00:11:19;12.70;99.90
24146;DHT22;12308;50.948;4.706;2023-03-14T00:13:51;12.80;99.90
24146;DHT22;12308;50.948;4.706;2023-03-14T00:16:18;12.80;99.90
24146;DHT22;12308;50.948;4.706;2023-03-14T00:18:44;12.80;99.90
24146;DHT22;12308;50.948;4.706;2023-03-14T00:21:11;12.80;99.90
24146;DHT22;12308;50.948;4.706;2023-03-14T00:23:38;12.80;99.90
24146;DHT22;12308;50.948;4.706;2023-03-14T00:26:09;12.80;99.90
24146;DHT22;12308;50.948;4.706;2023-03-14T00:28:35;12.80;99.90
24146;DHT22;12308;50.948;4.706;2023-03-14T00:31:06;12.70;99.90
24146;DHT22;12308;50.948;4.706;2023-03-14T00:33:31;12.60;99.90
24146;DHT22;12308;50.948;4.706;2023-03-14T00:36:00;12.50;99.90
24146;DHT22;12308;50.948;4.706;2023-03-14T00:38:26;12.50;99.90
24146;DHT22;12308;50.948;4.706;2023-03-14T00:40:53;12.50;99.90
24146;DHT22;12308;50.948;4.706;2023-03-14T00:43:19;12.60;99.90
24146;DHT22;12308;50.948;4.706;2023-03-14T00:45:48;12.50;99.90
24146;DHT22;12308;50.948;4.706;2023-03-14T00:48:13;12.50;99.90
24146;DHT22;12308;50.948;4.706;2023-03-14T00:50:39;12.50;99.90
24146;DHT22;12308;50.948;4.706;2023-03-14T00:53:04;12.50;99.90
24146;DHT22;12308;50.948;4.706;2023-03-14T00:55:30;12.60;99.90
24146;DHT22;12308;50.948;4.706;2023-03-14T00:57:56;12.60;99.90
24146;DHT22;12308;50.948;4.706;2023-03-14T01:00:22;12.60;99.90
24146;DHT22;12308;50.948;4.706;2023-03-14T01:02:48;12.60;99.90
24146;DHT22;12308;50.948;4.706;2023-03-14T01:05:13;12.70;99.90
24146;DHT22;12308;50.948;4.706;2023-03-14T01:07:39;12.80;99.90
24146;DHT22;12308;50.948;4.706;2023-03-14T01:10:05;12.60;99.90
24146;DHT22;12308;50.948;4.706;2023-03-14T01:12:32;12.60;99.90
24146;DHT22;12308;50.948;4.706;2023-03-14T01:14:58;12.60;99.90
24146;DHT22;12308;50.948;4.706;2023-03-14T01:17:24;12.50;99.90
24146;DHT22;12308;50.948;4.706;2023-03-14T01:19:49;12.50;99.90
24146;DHT22;12308;50.948;4.706;2023-03-14T01:22:15;12.30;99.90
24146;DHT22;12308;50.948;4.706;2023-03-14T01:24:41;12.30;99.90
24146;DHT22;12308;50.948;4.706;2023-03-14T01:27:06;12.30;99.90
24146;DHT22;12308;50.948;4.706;2023-03-14T01:29:32;12.40;99.90
24146;DHT22;12308;50.948;4.706;2023-03-14T01:31:58;12.40;99.90
24146;DHT22;12308;50.948;4.706;2023-03-14T01:34:23;12.40;99.90
24146;DHT22;12308;50.948;4.706;2023-03-14T01:36:49;12.40;99.90
24146;DHT22;12308;50.948;4.706;2023-03-14T01:39:15;12.50;99.90
24146;DHT22;12308;50.948;4.706;2023-03-14T01:41:41;12.50;99.90
24146;DHT22;12308;50.948;4.706;2023-03-14T01:44:11;12.40;99.90
24146;DHT22;12308;50.948;4.706;2023-03-14T01:46:43;12.40;99.90
24146;DHT22;12308;50.948;4.706;2023-03-14T01:49:43;12.40;99.90
24146;DHT22;12308;50.948;4.706;2023-03-14T01:52:19;12.50;99.90
24146;DHT22;12308;50.948;4.706;2023-03-14T01:54:58;12.40;99.90
24146;DHT22;12308;50.948;4.706;2023-03-14T01:57:33;12.40;99.90
24146;DHT22;12308;50.948;4.706;2023-03-14T02:00:06;12.40;99.90
24146;DHT22;12308;50.948;4.706;2023-03-14T02:02:38;12.40;99.90
24146;DHT22;12308;50.948;4.706;2023-03-14T02:05:05;12.20;99.90
24146;DHT22;12308;50.948;4.706;2023-03-14T02:10:06;12.10;99.90
24146;DHT22;12308;50.948;4.706;2023-03-14T02:12:34;12.10;99.90
24146;DHT22;12308;50.948;4.706;2023-03-14T02:15:00;12.20;99.90
24146;DHT22;12308;50.948;4.706;2023-03-14T02:17:25;12.20;99.90
24146;DHT22;12308;50.948;4.706;2023-03-14T02:22:43;12.10;99.90
24146;DHT22;12308;50.948;4.706;2023-03-14T02:28:09;12.20;99.90
24146;DHT22;12308;50.948;4.706;2023-03-14T02:30:34;12.00;99.90
24146;DHT22;12308;50.948;4.706;2023-03-14T02:33:06;11.90;99.90
24146;DHT22;12308;50.948;4.706;2023-03-14T02:35:37;11.80;99.90
24146;DHT22;12308;50.948;4.706;2023-03-14T02:40:57;11.70;99.90
24146;DHT22;12308;50.948;4.706;2023-03-14T02:43:22;11.60;99.90
24146;DHT22;12308;50.948;4.706;2023-03-14T02:45:50;11.60;99.90
24146;DHT22;12308;50.948;4.706;2023-03-14T02:48:22;11.50;99.90
24146;DHT22;12308;50.948;4.706;2023-03-14T02:50:52;11.40;99.90
24146;DHT22;12308;50.948;4.706;2023-03-14T02:53:23;11.40;99.90
24146;DHT22;12308;50.948;4.706;2023-03-14T02:55:50;11.20;99.90
24146;DHT22;12308;50.948;4.706;2023-03-14T02:58:17;11.20;99.90
24146;DHT22;12308;50.948;4.706;2023-03-14T03:00:43;11.30;99.90
24146;DHT22;12308;50.948;4.706;2023-03-14T03:03:08;11.10;99.90
24146;DHT22;12308;50.948;4.706;2023-03-14T03:05:34;11.20;99.90
24146;DHT22;12308;50.948;4.706;2023-03-14T03:08:00;11.10;99.90
24146;DHT22;12308;50.948;4.706;2023-03-14T03:10:27;11.10;99.90
24146;DHT22;12308;50.948;4.706;2023-03-14T03:12:53;11.10;99.90
24146;DHT22;12308;50.948;4.706;2023-03-14T03:15:18;11.20;99.90
24146;DHT22;12308;50.948;4.706;2023-03-14T03:17:44;11.00;99.90
24146;DHT22;12308;50.948;4.706;2023-03-14T03:20:10;11.00;99.90
24146;DHT22;12308;50.948;4.706;2023-03-14T03:22:36;11.00;99.90
24146;DHT22;12308;50.948;4.706;2023-03-14T03:25:03;11.00;99.90
24146;DHT22;12308;50.948;4.706;2023-03-14T03:27:31;11.00;99.90
24146;DHT22;12308;50.948;4.706;2023-03-14T03:29:57;11.00;99.90
24146;DHT22;12308;50.948;4.706;2023-03-14T03:32:23;11.10;99.90
24146;DHT22;12308;50.948;4.706;2023-03-14T03:34:49;11.00;99.90
24146;DHT22;12308;50.948;4.706;2023-03-14T03:37:14;11.00;99.90
24146;DHT22;12308;50.948;4.706;2023-03-14T03:39:40;11.10;99.90
24146;DHT22;12308;50.948;4.706;2023-03-14T03:42:05;11.20;99.90
24146;DHT22;12308;50.948;4.706;2023-03-14T03:44:31;11.10;99.90
24146;DHT22;12308;50.948;4.706;2023-03-14T03:46:57;11.20;99.90
24146;DHT22;12308;50.948;4.706;2023-03-14T03:49:22;11.20;99.90
24146;DHT22;12308;50.948;4.706;2023-03-14T03:51:48;11.20;99.90
24146;DHT22;12308;50.948;4.706;2023-03-14T03:54:14;11.20;99.90
24146;DHT22;12308;50.948;4.706;2023-03-14T03:56:39;11.20;99.90
24146;DHT22;12308;50.948;4.706;2023-03-14T03:59:05;11.10;99.90
24146;DHT22;12308;50.948;4.706;2023-03-14T04:01:30;11.20;99.90
24146;DHT22;12308;50.948;4.706;2023-03-14T04:03:56;11.20;99.90
24146;DHT22;12308;50.948;4.706;2023-03-14T04:06:22;11.10;99.90
24146;DHT22;12308;50.948;4.706;2023-03-14T04:08:47;11.10;99.90
24146;DHT22;12308;50.948;4.706;2023-03-14T04:11:13;11.10;99.90
24146;DHT22;12308;50.948;4.706;2023-03-14T04:13:39;11.10;99.90
24146;DHT22;12308;50.948;4.706;2023-03-14T04:16:14;11.20;99.90
24146;DHT22;12308;50.948;4.706;2023-03-14T04:18:40;11.20;99.90
24146;DHT22;12308;50.948;4.706;2023-03-14T04:21:06;11.20;99.90
24146;DHT22;12308;50.948;4.706;2023-03-14T04:23:32;11.20;99.90
24146;DHT22;12308;50.948;4.706;2023-03-14T04:25:58;11.10;99.90
24146;DHT22;12308;50.948;4.706;2023-03-14T04:28:24;11.20;99.90
24146;DHT22;12308;50.948;4.706;2023-03-14T04:30:50;11.20;99.90
24146;DHT22;12308;50.948;4.706;2023-03-14T04:33:16;11.30;99.90
24146;DHT22;12308;50.948;4.706;2023-03-14T04:35:43;11.30;99.90
24146;DHT22;12308;50.948;4.706;2023-03-14T04:38:10;11.30;99.90
24146;DHT22;12308;50.948;4.706;2023-03-14T04:40:40;11.30;99.90
24146;DHT22;12308;50.948;4.706;2023-03-14T04:43:06;11.30;99.90
24146;DHT22;12308;50.948;4.706;2023-03-14T04:45:32;11.40;99.90
24146;DHT22;12308;50.948;4.706;2023-03-14T04:47:57;11.50;99.90
24146;DHT22;12308;50.948;4.706;2023-03-14T04:50:23;11.50;99.90
24146;DHT22;12308;50.948;4.706;2023-03-14T04:52:49;11.40;99.90
24146;DHT22;12308;50.948;4.706;2023-03-14T04:55:14;11.40;99.90
24146;DHT22;12308;50.948;4.706;2023-03-14T04:57:40;11.50;99.90
24146;DHT22;12308;50.948;4.706;2023-03-14T05:00:06;11.60;99.90
24146;DHT22;12308;50.948;4.706;2023-03-14T05:02:33;11.50;99.90
24146;DHT22;12308;50.948;4.706;2023-03-14T05:04:59;11.60;99.90
24146;DHT22;12308;50.948;4.706;2023-03-14T05:07:24;11.50;99.90
24146;DHT22;12308;50.948;4.706;2023-03-14T05:09:50;11.70;99.90
24146;DHT22;12308;50.948;4.706;2023-03-14T05:12:16;11.60;99.90
24146;DHT22;12308;50.948;4.706;2023-03-14T05:14:41;11.50;99.90
24146;DHT22;12308;50.948;4.706;2023-03-14T05:17:07;11.50;99.90
24146;DHT22;12308;50.948;4.706;2023-03-14T05:19:33;11.50;99.90
24146;DHT22;12308;50.948;4.706;2023-03-14T05:21:58;11.50;99.90
24146;DHT22;12308;50.948;4.706;2023-03-14T05:24:24;11.60;99.90
24146;DHT22;12308;50.948;4.706;2023-03-14T05:26:50;11.50;99.90
24146;DHT22;12308;50.948;4.706;2023-03-14T05:29:15;11.60;99.90
24146;DHT22;12308;50.948;4.706;2023-03-14T05:31:41;11.60;99.90
24146;DHT22;12308;50.948;4.706;2023-03-14T05:34:07;11.50;99.90
24146;DHT22;12308;50.948;4.706;2023-03-14T05:36:32;11.60;99.90
24146;DHT22;12308;50.948;4.706;2023-03-14T05:38:58;11.50;99.90
24146;DHT22;12308;50.948;4.706;2023-03-14T05:41:23;11.60;99.90
24146;DHT22;12308;50.948;4.706;2023-03-14T05:43:49;11.70;99.90
24146;DHT22;12308;50.948;4.706;2023-03-14T05:46:15;11.80;99.90
24146;DHT22;12308;50.948;4.706;2023-03-14T05:48:40;11.80;99.90
24146;DHT22;12308;50.948;4.706;2023-03-14T05:51:06;11.70;99.90
24146;DHT22;12308;50.948;4.706;2023-03-14T05:53:32;11.80;99.90
24146;DHT22;12308;50.948;4.706;2023-03-14T05:55:57;11.60;99.90
24146;DHT22;12308;50.948;4.706;2023-03-14T05:58:23;11.50;99.90
24146;DHT22;12308;50.948;4.706;2023-03-14T06:00:49;11.40;99.90
24146;DHT22;12308;50.948;4.706;2023-03-14T06:03:15;11.40;99.90
24146;DHT22;12308;50.948;4.706;2023-03-14T06:05:41;11.50;99.90
24146;DHT22;12308;50.948;4.706;2023-03-14T06:08:06;11.50;99.90
24146;DHT22;12308;50.948;4.706;2023-03-14T06:10:32;11.40;99.90
24146;DHT22;12308;50.948;4.706;2023-03-14T06:12:58;11.50;99.90
24146;DHT22;12308;50.948;4.706;2023-03-14T06:15:23;11.40;99.90
24146;DHT22;12308;50.948;4.706;2023-03-14T06:17:49;11.40;99.90
24146;DHT22;12308;50.948;4.706;2023-03-14T06:20:15;11.40;99.90
24146;DHT22;12308;50.948;4.706;2023-03-14T06:22:40;11.50;99.90
24146;DHT22;12308;50.948;4.706;2023-03-14T06:25:08;11.50;99.90
24146;DHT22;12308;50.948;4.706;2023-03-14T06:27:33;11.50;99.90
24146;DHT22;12308;50.948;4.706;2023-03-14T06:29:59;11.40;99.90
24146;DHT22;12308;50.948;4.706;2023-03-14T06:32:25;11.30;99.90
24146;DHT22;12308;50.948;4.706;2023-03-14T06:34:51;11.30;99.90
24146;DHT22;12308;50.948;4.706;2023-03-14T06:37:16;11.30;99.90
24146;DHT22;12308;50.948;4.706;2023-03-14T06:39:42;11.30;99.90
24146;DHT22;12308;50.948;4.706;2023-03-14T06:42:09;11.30;99.90
24146;DHT22;12308;50.948;4.706;2023-03-14T06:44:35;11.40;99.90
24146;DHT22;12308;50.948;4.706;2023-03-14T06:47:01;11.40;99.90
24146;DHT22;12308;50.948;4.706;2023-03-14T06:49:27;11.30;99.90
24146;DHT22;12308;50.948;4.706;2023-03-14T06:51:52;11.20;99.90
24146;DHT22;12308;50.948;4.706;2023-03-14T06:54:18;11.20;99.90
24146;DHT22;12308;50.948;4.706;2023-03-14T06:56:44;11.10;99.90
24146;DHT22;12308;50.948;4.706;2023-03-14T06:59:09;11.10;99.90
24146;DHT22;12308;50.948;4.706;2023-03-14T07:01:35;11.20;99.90
24146;DHT22;12308;50.948;4.706;2023-03-14T07:04:02;11.30;99.90
24146;DHT22;12308;50.948;4.706;2023-03-14T07:06:28;11.30;99.90
24146;DHT22;12308;50.948;4.706;2023-03-14T07:08:55;11.00;99.90
24146;DHT22;12308;50.948;4.706;2023-03-14T07:11:21;10.40;99.90
24146;DHT22;12308;50.948;4.706;2023-03-14T07:13:47;9.90;99.90
24146;DHT22;12308;50.948;4.706;2023-03-14T07:16:13;9.60;99.90
24146;DHT22;12308;50.948;4.706;2023-03-14T07:18:39;9.40;99.90
24146;DHT22;12308;50.948;4.706;2023-03-14T07:21:06;9.20;99.90
24146;DHT22;12308;50.948;4.706;2023-03-14T07:23:32;9.00;99.90
24146;DHT22;12308;50.948;4.706;2023-03-14T07:25:58;9.00;99.90
24146;DHT22;12308;50.948;4.706;2023-03-14T07:28:23;8.90;99.90
24146;DHT22;12308;50.948;4.706;2023-03-14T07:30:49;8.80;99.90
24146;DHT22;12308;50.948;4.706;2023-03-14T07:33:15;8.70;99.90
24146;DHT22;12308;50.948;4.706;2023-03-14T07:35:41;8.40;99.90
24146;DHT22;12308;50.948;4.706;2023-03-14T07:38:07;8.30;99.90
24146;DHT22;12308;50.948;4.706;2023-03-14T07:40:32;8.20;99.90
24146;DHT22;12308;50.948;4.706;2023-03-14T07:42:58;8.10;99.90
24146;DHT22;12308;50.948;4.706;2023-03-14T07:45:23;8.10;99.90
24146;DHT22;12308;50.948;4.706;2023-03-14T07:47:49;8.10;99.90
24146;DHT22;12308;50.948;4.706;2023-03-14T07:50:15;8.10;99.90
24146;DHT22;12308;50.948;4.706;2023-03-14T07:52:41;8.10;99.90
24146;DHT22;12308;50.948;4.706;2023-03-14T07:55:07;8.20;99.90
24146;DHT22;12308;50.948;4.706;2023-03-14T07:57:33;8.30;99.90
24146;DHT22;12308;50.948;4.706;2023-03-14T07:59:58;8.20;99.90
24146;DHT22;12308;50.948;4.706;2023-03-14T08:02:24;8.10;99.90
24146;DHT22;12308;50.948;4.706;2023-03-14T08:04:50;8.00;99.90
24146;DHT22;12308;50.948;4.706;2023-03-14T08:07:15;8.00;99.90
24146;DHT22;12308;50.948;4.706;2023-03-14T08:09:42;8.10;99.90
24146;DHT22;12308;50.948;4.706;2023-03-14T08:12:08;8.20;99.90
24146;DHT22;12308;50.948;4.706;2023-03-14T08:14:33;8.30;99.90
24146;DHT22;12308;50.948;4.706;2023-03-14T08:16:59;8.30;99.90
24146;DHT22;12308;50.948;4.706;2023-03-14T08:19:25;8.30;99.90
24146;DHT22;12308;50.948;4.706;2023-03-14T08:21:50;8.30;99.90
24146;DHT22;12308;50.948;4.706;2023-03-14T08:24:16;8.50;99.90
24146;DHT22;12308;50.948;4.706;2023-03-14T08:26:42;8.60;99.90
24146;DHT22;12308;50.948;4.706;2023-03-14T08:29:08;8.60;99.90
24146;DHT22;12308;50.948;4.706;2023-03-14T08:31:34;8.60;99.90
24146;DHT22;12308;50.948;4.706;2023-03-14T08:34:01;8.60;99.90
24146;DHT22;12308;50.948;4.706;2023-03-14T08:36:27;8.70;99.90
24146;DHT22;12308;50.948;4.706;2023-03-14T08:38:53;8.60;99.90
24146;DHT22;12308;50.948;4.706;2023-03-14T08:41:19;8.50;99.90
24146;DHT22;12308;50.948;4.706;2023-03-14T08:43:44;8.30;99.90
24146;DHT22;12308;50.948;4.706;2023-03-14T08:46:10;8.40;99.90
24146;DHT22;12308;50.948;4.706;2023-03-14T08:48:36;8.30;99.90
24146;DHT22;12308;50.948;4.706;2023-03-14T08:51:19;8.40;99.90
24146;DHT22;12308;50.948;4.706;2023-03-14T08:53:45;8.40;99.90
24146;DHT22;12308;50.948;4.706;2023-03-14T08:56:10;8.40;99.90
24146;DHT22;12308;50.948;4.706;2023-03-14T08:58:37;8.40;99.90
24146;DHT22;12308;50.948;4.706;2023-03-14T09:01:05;8.30;99.90
24146;DHT22;12308;50.948;4.706;2023-03-14T09:03:30;8.40;99.90
24146;DHT22;12308;50.948;4.706;2023-03-14T09:06:00;8.40;99.90
24146;DHT22;12308;50.948;4.706;2023-03-14T09:08:28;8.30;99.90
24146;DHT22;12308;50.948;4.706;2023-03-14T09:10:53;8.40;99.90
24146;DHT22;12308;50.948;4.706;2023-03-14T09:13:19;8.40;99.90
24146;DHT22;12308;50.948;4.706;2023-03-14T09:15:54;8.50;99.90
24146;DHT22;12308;50.948;4.706;2023-03-14T09:18:19;8.50;99.90
24146;DHT22;12308;50.948;4.706;2023-03-14T09:20:45;8.70;99.90
24146;DHT22;12308;50.948;4.706;2023-03-14T09:23:11;8.80;99.90
24146;DHT22;12308;50.948;4.706;2023-03-14T09:25:36;8.90;99.90
24146;DHT22;12308;50.948;4.706;2023-03-14T09:28:02;9.10;99.90
24146;DHT22;12308;50.948;4.706;2023-03-14T09:30:28;9.10;99.90
24146;DHT22;12308;50.948;4.706;2023-03-14T09:32:54;9.00;99.90
24146;DHT22;12308;50.948;4.706;2023-03-14T09:35:19;8.90;99.90
24146;DHT22;12308;50.948;4.706;2023-03-14T09:37:45;8.90;99.90
24146;DHT22;12308;50.948;4.706;2023-03-14T09:40:13;8.80;99.90
24146;DHT22;12308;50.948;4.706;2023-03-14T09:42:40;8.50;99.90
24146;DHT22;12308;50.948;4.706;2023-03-14T09:45:33;8.30;99.90
24146;DHT22;12308;50.948;4.706;2023-03-14T09:47:57;8.10;99.90
24146;DHT22;12308;50.948;4.706;2023-03-14T09:50:24;8.10;99.90
24146;DHT22;12308;50.948;4.706;2023-03-14T09:52:56;8.10;99.90
24146;DHT22;12308;50.948;4.706;2023-03-14T09:55:22;8.20;99.90
24146;DHT22;12308;50.948;4.706;2023-03-14T09:57:56;8.40;99.90
24146;DHT22;12308;50.948;4.706;2023-03-14T10:00:27;8.70;99.90
24146;DHT22;12308;50.948;4.706;2023-03-14T10:05:23;8.70;99.90
24146;DHT22;12308;50.948;4.706;2023-03-14T10:07:48;8.70;99.90
24146;DHT22;12308;50.948;4.706;2023-03-14T10:10:21;8.70;99.90
24146;DHT22;12308;50.948;4.706;2023-03-14T10:12:58;8.60;99.90
24146;DHT22;12308;50.948;4.706;2023-03-14T10:15:32;8.70;99.90
24146;DHT22;12308;50.948;4.706;2023-03-14T10:18:00;8.60;99.90
24146;DHT22;12308;50.948;4.706;2023-03-14T10:23:02;8.20;99.90
24146;DHT22;12308;50.948;4.706;2023-03-14T10:25:31;8.10;99.90
24146;DHT22;12308;50.948;4.706;2023-03-14T10:27:57;8.20;99.90
24146;DHT22;12308;50.948;4.706;2023-03-14T10:33:35;8.00;99.90
24146;DHT22;12308;50.948;4.706;2023-03-14T10:36:19;7.70;99.90
24146;DHT22;12308;50.948;4.706;2023-03-14T10:38:46;7.60;99.90
24146;DHT22;12308;50.948;4.706;2023-03-14T10:41:26;7.70;99.90
24146;DHT22;12308;50.948;4.706;2023-03-14T10:43:59;7.70;99.90
24146;DHT22;12308;50.948;4.706;2023-03-14T10:46:30;7.50;99.90
24146;DHT22;12308;50.948;4.706;2023-03-14T10:48:56;7.40;99.90
24146;DHT22;12308;50.948;4.706;2023-03-14T10:51:29;7.40;99.90
24146;DHT22;12308;50.948;4.706;2023-03-14T10:56:23;7.10;99.90
24146;DHT22;12308;50.948;4.706;2023-03-14T10:58:53;7.10;99.90
24146;DHT22;12308;50.948;4.706;2023-03-14T11:01:39;7.10;99.90
24146;DHT22;12308;50.948;4.706;2023-03-14T11:07:32;7.10;99.90
24146;DHT22;12308;50.948;4.706;2023-03-14T11:10:00;7.00;99.90
24146;DHT22;12308;50.948;4.706;2023-03-14T11:15:36;6.70;99.90
24146;DHT22;12308;50.948;4.706;2023-03-14T11:28:49;6.90;99.90
24146;DHT22;12308;50.948;4.706;2023-03-14T11:31:31;7.00;99.90
24146;DHT22;12308;50.948;4.706;2023-03-14T11:36:52;7.30;99.90
24146;DHT22;12308;50.948;4.706;2023-03-14T11:39:20;7.40;99.90
24146;DHT22;12308;50.948;4.706;2023-03-14T11:41:52;7.50;99.90
24146;DHT22;12308;50.948;4.706;2023-03-14T11:44:23;7.60;99.90
24146;DHT22;12308;50.948;4.706;2023-03-14T11:52:30;8.00;99.90
24146;DHT22;12308;50.948;4.706;2023-03-14T11:57:26;8.30;99.90
24146;DHT22;12308;50.948;4.706;2023-03-14T12:00:24;8.30;99.90
24146;DHT22;12308;50.948;4.706;2023-03-14T12:10:27;7.80;99.90
24146;DHT22;12308;50.948;4.706;2023-03-14T12:12:53;7.80;99.90
24146;DHT22;12308;50.948;4.706;2023-03-14T12:15:21;7.80;99.90
24146;DHT22;12308;50.948;4.706;2023-03-14T12:17:55;7.90;99.90
24146;DHT22;12308;50.948;4.706;2023-03-14T12:20:25;7.80;99.90
24146;DHT22;12308;50.948;4.706;2023-03-14T12:23:04;7.70;99.90
24146;DHT22;12308;50.948;4.706;2023-03-14T12:25:32;7.60;99.90
24146;DHT22;12308;50.948;4.706;2023-03-14T12:28:20;7.40;99.90
24146;DHT22;12308;50.948;4.706;2023-03-14T12:30:46;7.40;99.90
24146;DHT22;12308;50.948;4.706;2023-03-14T12:33:20;7.30;99.90
24146;DHT22;12308;50.948;4.706;2023-03-14T12:35:51;6.90;99.90
24146;DHT22;12308;50.948;4.706;2023-03-14T12:38:55;6.50;99.90
24146;DHT22;12308;50.948;4.706;2023-03-14T12:41:36;6.50;99.90
24146;DHT22;12308;50.948;4.706;2023-03-14T12:46:59;6.80;99.90
24146;DHT22;12308;50.948;4.706;2023-03-14T12:49:32;7.10;99.90
24146;DHT22;12308;50.948;4.706;2023-03-14T12:52:01;7.50;99.90
24146;DHT22;12308;50.948;4.706;2023-03-14T13:02:45;7.80;99.90
24146;DHT22;12308;50.948;4.706;2023-03-14T13:05:21;7.80;99.90
24146;DHT22;12308;50.948;4.706;2023-03-14T13:10:22;8.50;99.90
24146;DHT22;12308;50.948;4.706;2023-03-14T13:15:32;8.50;99.90
24146;DHT22;12308;50.948;4.706;2023-03-14T13:18:11;8.50;99.90
24146;DHT22;12308;50.948;4.706;2023-03-14T13:20:45;8.70;99.90
24146;DHT22;12308;50.948;4.706;2023-03-14T13:23:27;8.60;99.90
24146;DHT22;12308;50.948;4.706;2023-03-14T13:25:53;8.50;99.90
24146;DHT22;12308;50.948;4.706;2023-03-14T13:28:19;8.40;99.90
24146;DHT22;12308;50.948;4.706;2023-03-14T13:30:47;8.20;99.90
24146;DHT22;12308;50.948;4.706;2023-03-14T13:33:21;7.70;99.90
24146;DHT22;12308;50.948;4.706;2023-03-14T13:35:49;6.50;99.90
24146;DHT22;12308;50.948;4.706;2023-03-14T13:38:22;5.90;99.90
24146;DHT22;12308;50.948;4.706;2023-03-14T13:40:50;5.80;99.90
24146;DHT22;12308;50.948;4.706;2023-03-14T13:43:21;6.00;99.90
24146;DHT22;12308;50.948;4.706;2023-03-14T13:46:04;6.40;99.90
24146;DHT22;12308;50.948;4.706;2023-03-14T13:48:32;6.70;99.90
24146;DHT22;12308;50.948;4.706;2023-03-14T13:51:07;6.90;99.90
24146;DHT22;12308;50.948;4.706;2023-03-14T13:53:45;7.10;99.90
24146;DHT22;12308;50.948;4.706;2023-03-14T13:56:11;7.20;99.90
24146;DHT22;12308;50.948;4.706;2023-03-14T13:58:39;7.00;99.90
24146;DHT22;12308;50.948;4.706;2023-03-14T14:03:38;7.30;99.90
24146;DHT22;12308;50.948;4.706;2023-03-14T14:06:08;7.50;99.90
24146;DHT22;12308;50.948;4.706;2023-03-14T14:08:35;7.80;99.90
24146;DHT22;12308;50.948;4.706;2023-03-14T14:11:02;8.10;99.90
24146;DHT22;12308;50.948;4.706;2023-03-14T14:13:32;8.20;99.90
24146;DHT22;12308;50.948;4.706;2023-03-14T14:16:00;8.50;99.90
24146;DHT22;12308;50.948;4.706;2023-03-14T14:18:28;8.70;99.90
24146;DHT22;12308;50.948;4.706;2023-03-14T14:20:54;8.80;99.90
24146;DHT22;12308;50.948;4.706;2023-03-14T14:23:22;8.60;99.90
24146;DHT22;12308;50.948;4.706;2023-03-14T14:25:52;8.70;99.90
24146;DHT22;12308;50.948;4.706;2023-03-14T14:28:30;8.90;99.90
24146;DHT22;12308;50.948;4.706;2023-03-14T14:31:01;8.60;99.90
24146;DHT22;12308;50.948;4.706;2023-03-14T14:33:27;8.50;99.90
24146;DHT22;12308;50.948;4.706;2023-03-14T14:36:00;8.40;99.90
24146;DHT22;12308;50.948;4.706;2023-03-14T14:38:26;8.40;99.90
24146;DHT22;12308;50.948;4.706;2023-03-14T14:40:59;8.20;99.90
24146;DHT22;12308;50.948;4.706;2023-03-14T14:43:28;8.10;99.90
24146;DHT22;12308;50.948;4.706;2023-03-14T14:45:56;8.00;99.90
24146;DHT22;12308;50.948;4.706;2023-03-14T14:48:25;8.00;99.90
24146;DHT22;12308;50.948;4.706;2023-03-14T14:51:00;8.00;99.90
24146;DHT22;12308;50.948;4.706;2023-03-14T14:56:47;8.10;99.90
24146;DHT22;12308;50.948;4.706;2023-03-14T14:59:01;8.00;99.90
24146;DHT22;12308;50.948;4.706;2023-03-14T15:01:38;7.50;99.90
24146;DHT22;12308;50.948;4.706;2023-03-14T15:04:14;7.10;99.90
24146;DHT22;12308;50.948;4.706;2023-03-14T15:06:44;6.80;99.90
24146;DHT22;12308;50.948;4.706;2023-03-14T15:09:11;6.70;99.90
24146;DHT22;12308;50.948;4.706;2023-03-14T15:11:37;6.60;99.90
24146;DHT22;12308;50.948;4.706;2023-03-14T15:14:03;6.50;99.90
24146;DHT22;12308;50.948;4.706;2023-03-14T15:16:31;6.50;99.90
24146;DHT22;12308;50.948;4.706;2023-03-14T15:19:02;6.70;99.90
24146;DHT22;12308;50.948;4.706;2023-03-14T15:21:31;6.80;99.90
24146;DHT22;12308;50.948;4.706;2023-03-14T15:23:57;6.90;99.90
24146;DHT22;12308;50.948;4.706;2023-03-14T15:26:25;7.10;99.90
24146;DHT22;12308;50.948;4.706;2023-03-14T15:28:52;7.10;99.90
24146;DHT22;12308;50.948;4.706;2023-03-14T15:31:18;7.30;99.90
24146;DHT22;12308;50.948;4.706;2023-03-14T15:33:45;7.50;99.90
24146;DHT22;12308;50.948;4.706;2023-03-14T15:36:24;7.50;99.90
24146;DHT22;12308;50.948;4.706;2023-03-14T15:38:51;7.50;99.90
24146;DHT22;12308;50.948;4.706;2023-03-14T15:41:18;7.70;99.90
24146;DHT22;12308;50.948;4.706;2023-03-14T15:43:44;7.80;99.90
24146;DHT22;12308;50.948;4.706;2023-03-14T15:46:11;7.90;99.90
24146;DHT22;12308;50.948;4.706;2023-03-14T15:48:37;7.90;99.90
24146;DHT22;12308;50.948;4.706;2023-03-14T15:51:03;7.90;99.90
24146;DHT22;12308;50.948;4.706;2023-03-14T15:53:28;7.90;99.90
24146;DHT22;12308;50.948;4.706;2023-03-14T15:55:54;7.90;99.90
24146;DHT22;12308;50.948;4.706;2023-03-14T15:58:20;8.10;99.90
24146;DHT22;12308;50.948;4.706;2023-03-14T16:00:46;8.10;99.90
24146;DHT22;12308;50.948;4.706;2023-03-14T16:03:12;8.10;99.90
24146;DHT22;12308;50.948;4.706;2023-03-14T16:05:39;8.10;99.90
24146;DHT22;12308;50.948;4.706;2023-03-14T16:08:05;7.90;99.90
24146;DHT22;12308;50.948;4.706;2023-03-14T16:10:31;8.00;99.90
24146;DHT22;12308;50.948;4.706;2023-03-14T16:12:57;7.90;99.90
24146;DHT22;12308;50.948;4.706;2023-03-14T16:15:23;7.90;99.90
24146;DHT22;12308;50.948;4.706;2023-03-14T16:17:53;8.00;99.90
24146;DHT22;12308;50.948;4.706;2023-03-14T16:20:19;7.80;99.90
24146;DHT22;12308;50.948;4.706;2023-03-14T16:22:45;7.70;99.90
24146;DHT22;12308;50.948;4.706;2023-03-14T16:25:11;7.60;99.90
24146;DHT22;12308;50.948;4.706;2023-03-14T16:27:37;7.60;99.90
24146;DHT22;12308;50.948;4.706;2023-03-14T16:30:03;7.50;99.90
24146;DHT22;12308;50.948;4.706;2023-03-14T16:32:29;7.40;99.90
24146;DHT22;12308;50.948;4.706;2023-03-14T16:34:55;7.50;99.90
24146;DHT22;12308;50.948;4.706;2023-03-14T16:37:23;7.40;99.90
24146;DHT22;12308;50.948;4.706;2023-03-14T16:39:49;7.10;99.90
24146;DHT22;12308;50.948;4.706;2023-03-14T16:42:15;7.00;99.90
24146;DHT22;12308;50.948;4.706;2023-03-14T16:44:41;6.90;99.90
24146;DHT22;12308;50.948;4.706;2023-03-14T16:47:07;6.90;99.90
24146;DHT22;12308;50.948;4.706;2023-03-14T16:49:33;6.90;99.90
24146;DHT22;12308;50.948;4.706;2023-03-14T16:51:58;7.00;99.90
24146;DHT22;12308;50.948;4.706;2023-03-14T16:54:24;7.10;99.90
24146;DHT22;12308;50.948;4.706;2023-03-14T16:56:50;7.10;99.90
24146;DHT22;12308;50.948;4.706;2023-03-14T16:59:17;7.10;99.90
24146;DHT22;12308;50.948;4.706;2023-03-14T17:01:43;7.10;99.90
24146;DHT22;12308;50.948;4.706;2023-03-14T17:04:09;7.00;99.90